Time;durP1;ratioP1;P1;durP2;ratioP2;P2;SDS_P1;SDS_P2;PMS_P1;PMS_P2;Temp;Humidity;BMP_temperature;BMP_pressure;BME280_temperature;BME280_humidity;BME280_pressure;Samples;Min_cycle;Max_cycle;Signal;HPM_P1;HPM_P2
2023/01/18 00:01:34;;;;;;;14.70;2.17;;;13.30;82.10;;;;;;6306547;22;19999;-76
2023/01/18 00:04:00;;;;;;;8.18;1.92;;;13.30;82.20;;;;;;6307647;22;20058;-78
2023/01/18 00:06:28;;;;;;;11.50;1.80;;;13.30;81.70;;;;;;6307096;22;20035;-77
2023/01/18 00:08:54;;;;;;;11.65;1.90;;;13.20;82.00;;;;;;6307199;22;20094;-77
2023/01/18 00:11:20;;;;;;;7.15;1.70;;;13.20;81.50;;;;;;6306981;22;20026;-76
2023/01/18 00:13:46;;;;;;;6.78;1.50;;;13.20;81.50;;;;;;6306797;22;19995;-76
2023/01/18 00:16:18;;;;;;;11.90;1.95;;;13.20;81.40;;;;;;6306535;22;20088;-76
2023/01/18 00:18:51;;;;;;;14.13;2.10;;;13.20;81.30;;;;;;6306754;22;20056;-78
2023/01/18 00:21:16;;;;;;;13.35;2.28;;;13.20;81.50;;;;;;6306958;22;20003;-76
2023/01/18 00:23:42;;;;;;;14.32;1.95;;;13.10;81.70;;;;;;6306634;22;20113;-77
2023/01/18 00:26:09;;;;;;;10.65;2.28;;;13.10;81.80;;;;;;6306732;22;20003;-77
2023/01/18 00:28:36;;;;;;;13.18;2.53;;;13.10;82.00;;;;;;6306915;22;20070;-77
2023/01/18 00:31:12;;;;;;;11.75;2.20;;;13.20;81.70;;;;;;6306779;22;20007;-76
2023/01/18 00:33:40;;;;;;;10.38;2.20;;;13.20;82.20;;;;;;6306504;22;20001;-76
2023/01/18 00:36:06;;;;;;;12.57;2.05;;;13.30;82.20;;;;;;6306531;22;20007;-78
2023/01/18 00:38:32;;;;;;;10.95;1.90;;;13.30;81.50;;;;;;6306391;22;20012;-76
2023/01/18 00:40:57;;;;;;;9.10;2.13;;;13.30;80.90;;;;;;6306591;22;20437;-76
2023/01/18 00:43:38;;;;;;;8.73;1.42;;;13.20;80.70;;;;;;6306685;22;20022;-78
2023/01/18 00:46:12;;;;;;;10.55;1.90;;;13.20;80.30;;;;;;6306768;22;20007;-76
2023/01/18 00:48:39;;;;;;;10.35;1.83;;;13.20;79.70;;;;;;6306705;22;20004;-76
2023/01/18 00:51:07;;;;;;;11.30;3.15;;;13.20;79.40;;;;;;6306699;22;19999;-77
2023/01/18 00:53:33;;;;;;;10.23;1.70;;;13.20;78.90;;;;;;6279114;22;20007;-77
2023/01/18 00:55:58;;;;;;;8.68;1.98;;;13.20;78.70;;;;;;6306459;22;20007;-75
2023/01/18 00:58:24;;;;;;;12.13;1.52;;;13.20;78.80;;;;;;6307270;22;19999;-77
2023/01/18 01:00:51;;;;;;;7.93;1.65;;;13.20;79.00;;;;;;6308554;22;20014;-76
2023/01/18 01:03:18;;;;;;;9.27;1.50;;;13.20;78.20;;;;;;6309156;22;20066;-77
2023/01/18 01:08:28;;;;;;;8.15;1.58;;;13.10;78.30;;;;;;6304770;22;20391;-76
2023/01/18 01:11:07;;;;;;;8.27;1.75;;;13.10;78.50;;;;;;6308048;22;19995;-77
2023/01/18 01:27:16;;;;;;;10.93;2.15;;;12.80;78.10;;;;;;6308644;22;20508;-76
2023/01/18 01:29:42;;;;;;;10.75;1.88;;;12.80;77.90;;;;;;6308373;22;20003;-76
2023/01/18 01:32:08;;;;;;;14.38;2.70;;;12.80;77.60;;;;;;6308438;22;20444;-77
2023/01/18 01:34:34;;;;;;;13.93;2.22;;;12.80;77.60;;;;;;6308440;22;20433;-76
2023/01/18 01:37:01;;;;;;;17.60;2.40;;;12.70;77.60;;;;;;6280711;22;20086;-75
2023/01/18 01:39:27;;;;;;;16.10;3.03;;;12.70;77.60;;;;;;6308077;22;20018;-75
2023/01/18 01:41:53;;;;;;;13.70;2.13;;;12.60;77.30;;;;;;6308311;22;20011;-78
2023/01/18 01:44:18;;;;;;;14.55;2.08;;;12.60;77.00;;;;;;6308412;22;20030;-77
2023/01/18 01:47:01;;;;;;;14.68;2.47;;;12.60;77.40;;;;;;6308418;22;20007;-77
2023/01/18 01:49:34;;;;;;;10.50;1.97;;;12.60;77.40;;;;;;6308479;22;20070;-77
2023/01/18 01:52:07;;;;;;;16.30;3.25;;;12.50;77.40;;;;;;6308315;22;19995;-78
2023/01/18 01:54:38;;;;;;;16.30;2.90;;;12.50;77.90;;;;;;6308076;22;19999;-75
2023/01/18 01:57:45;;;;;;;21.75;2.15;;;12.50;77.80;;;;;;6308359;22;20339;-75
2023/01/18 02:00:14;;;;;;;10.75;2.42;;;12.50;77.90;;;;;;6308348;22;20002;-76
2023/01/18 02:02:42;;;;;;;11.23;1.92;;;12.50;77.60;;;;;;6307860;22;19999;-75
2023/01/18 02:05:11;;;;;;;13.13;2.38;;;12.50;77.60;;;;;;6308017;22;20002;-76
2023/01/18 02:07:37;;;;;;;13.73;2.17;;;12.50;77.50;;;;;;6308120;22;20002;-76
2023/01/18 02:10:04;;;;;;;12.77;2.10;;;12.50;77.50;;;;;;6308133;22;19999;-78
2023/01/18 02:12:31;;;;;;;10.23;1.90;;;12.50;77.40;;;;;;6307871;22;20003;-77
2023/01/18 02:14:58;;;;;;;14.52;1.85;;;12.50;77.20;;;;;;6307749;22;20410;-77
2023/01/18 02:17:41;;;;;;;17.40;2.10;;;12.50;77.10;;;;;;6308200;22;20007;-77
2023/01/18 02:20:30;;;;;;;11.63;2.03;;;12.50;77.10;;;;;;6308169;22;20105;-76
2023/01/18 02:23:40;;;;;;;11.27;2.17;;;12.50;77.00;;;;;;6306369;22;20046;-76
2023/01/18 02:26:06;;;;;;;8.98;1.85;;;12.50;77.20;;;;;;6183580;23;20008;-76
2023/01/18 02:28:36;;;;;;;11.20;1.80;;;12.40;76.90;;;;;;6282213;22;20011;-77
2023/01/18 02:31:16;;;;;;;10.05;1.63;;;12.40;76.90;;;;;;6307894;22;20413;-76
2023/01/18 02:34:04;;;;;;;17.70;2.85;;;12.40;77.30;;;;;;6280353;22;20391;-76
2023/01/18 02:36:59;;;;;;;8.10;1.60;;;12.30;77.10;;;;;;6307813;22;20015;-76
2023/01/18 02:40:06;;;;;;;9.80;1.80;;;12.30;77.20;;;;;;6305845;22;20026;-76
2023/01/18 02:48:39;;;;;;;21.42;3.17;;;12.30;76.80;;;;;;6297703;22;20076;-75
2023/01/18 02:51:05;;;;;;;9.63;1.95;;;12.30;76.70;;;;;;6307984;22;20311;-78
2023/01/18 02:53:36;;;;;;;8.00;2.00;;;12.30;76.80;;;;;;6307988;22;20006;-76
2023/01/18 02:56:09;;;;;;;13.48;2.92;;;12.30;76.60;;;;;;6307512;22;20019;-77
2023/01/18 02:59:00;;;;;;;14.35;2.28;;;12.30;77.10;;;;;;6307862;22;20427;-77
2023/01/18 03:02:03;;;;;;;20.50;2.25;;;12.30;77.60;;;;;;6293463;22;20010;-77
2023/01/18 03:04:37;;;;;;;12.00;1.80;;;12.30;77.20;;;;;;6307648;22;20086;-77
2023/01/18 03:07:12;;;;;;;13.20;1.60;;;12.30;76.90;;;;;;6307690;22;19995;-75
2023/01/18 03:09:41;;;;;;;8.05;1.90;;;12.30;77.00;;;;;;6307666;22;20429;-76
2023/01/18 03:12:44;;;;;;;12.43;1.98;;;12.30;76.70;;;;;;6307597;22;20109;-76
2023/01/18 03:15:58;;;;;;;15.82;1.85;;;12.30;76.60;;;;;;6307297;22;20010;-76
2023/01/18 03:19:01;;;;;;;9.68;1.52;;;12.30;76.90;;;;;;6301387;22;20125;-76
2023/01/18 03:21:35;;;;;;;12.73;2.00;;;12.20;76.30;;;;;;6306934;22;20090;-77
2023/01/18 03:24:04;;;;;;;9.63;1.80;;;12.20;76.30;;;;;;6307381;22;20452;-77
2023/01/18 03:26:32;;;;;;;11.85;1.80;;;12.20;76.30;;;;;;6307316;22;20026;-76
2023/01/18 03:34:57;;;;;;;11.85;1.98;;;12.10;76.70;;;;;;6307507;22;20014;-76
2023/01/18 03:37:28;;;;;;;10.13;2.17;;;12.10;75.90;;;;;;6307308;22;20433;-77
2023/01/18 03:39:59;;;;;;;10.38;2.13;;;12.10;76.20;;;;;;6307384;22;20654;-77
2023/01/18 03:42:33;;;;;;;12.10;1.80;;;12.10;76.20;;;;;;6307506;22;20022;-77
2023/01/18 03:45:15;;;;;;;11.70;1.75;;;12.10;76.10;;;;;;6307414;22;20073;-76
2023/01/18 03:47:41;;;;;;;10.77;2.15;;;12.10;76.10;;;;;;6279754;22;20011;-78
2023/01/18 03:50:07;;;;;;;10.57;2.08;;;12.10;76.30;;;;;;6307390;22;20026;-76
2023/01/18 03:52:40;;;;;;;14.65;2.30;;;12.00;76.30;;;;;;6307333;22;20030;-78
2023/01/18 03:55:19;;;;;;;11.83;1.90;;;12.00;77.00;;;;;;6306880;22;20072;-78
2023/01/18 03:58:09;;;;;;;11.43;1.83;;;12.00;76.40;;;;;;6307271;22;20510;-78
2023/01/18 04:00:39;;;;;;;14.05;2.35;;;12.00;76.50;;;;;;6307005;22;20001;-78
2023/01/18 04:03:05;;;;;;;11.07;2.00;;;12.00;76.40;;;;;;6306820;22;20003;-78
2023/01/18 04:05:32;;;;;;;16.75;2.45;;;12.00;76.30;;;;;;6306862;22;20076;-76
2023/01/18 04:07:57;;;;;;;9.02;2.03;;;12.00;76.30;;;;;;6306647;22;20006;-76
2023/01/18 04:10:23;;;;;;;16.70;2.13;;;12.00;76.40;;;;;;6306882;22;20075;-76
2023/01/18 04:12:49;;;;;;;12.70;2.28;;;12.00;76.40;;;;;;6306777;22;20026;-77
2023/01/18 04:15:15;;;;;;;16.98;2.13;;;12.00;76.50;;;;;;6306645;22;20362;-76
2023/01/18 04:17:40;;;;;;;17.92;2.60;;;12.00;76.40;;;;;;6307168;22;20447;-77
2023/01/18 04:20:07;;;;;;;11.50;2.15;;;12.00;76.30;;;;;;6307625;22;19995;-77
2023/01/18 04:22:32;;;;;;;13.48;2.17;;;12.00;76.80;;;;;;6306905;22;20408;-76
2023/01/18 04:24:58;;;;;;;13.77;2.15;;;12.00;76.60;;;;;;6307068;22;19999;-77
2023/01/18 04:27:24;;;;;;;18.25;2.30;;;11.90;76.70;;;;;;6306488;22;20275;-76
2023/01/18 04:29:50;;;;;;;13.52;2.05;;;12.00;76.70;;;;;;6306627;22;19999;-77
2023/01/18 04:32:16;;;;;;;10.73;2.10;;;12.00;76.60;;;;;;6306855;22;19999;-76
2023/01/18 04:34:41;;;;;;;14.65;2.08;;;12.00;76.60;;;;;;6306257;22;20003;-76
2023/01/18 04:37:07;;;;;;;9.38;1.95;;;12.00;76.70;;;;;;6304923;22;20017;-73
2023/01/18 04:39:33;;;;;;;13.00;2.05;;;11.90;76.70;;;;;;6247645;22;20388;-76
2023/01/18 04:41:59;;;;;;;14.30;3.00;;;12.00;77.10;;;;;;6275605;22;20034;-77
2023/01/18 04:44:24;;;;;;;10.40;2.20;;;12.00;76.90;;;;;;6275705;22;20007;-77
2023/01/18 04:46:50;;;;;;;10.63;2.90;;;12.00;76.70;;;;;;6275733;22;20004;-75
2023/01/18 04:49:16;;;;;;;13.98;2.13;;;12.10;76.60;;;;;;6275371;22;20456;-77
2023/01/18 04:51:45;;;;;;;15.82;2.55;;;12.10;76.50;;;;;;6275615;22;19999;-75
2023/01/18 04:54:14;;;;;;;12.18;2.20;;;12.10;76.60;;;;;;6275879;22;19995;-76
2023/01/18 04:56:40;;;;;;;14.27;2.40;;;12.10;76.70;;;;;;6248264;22;20015;-77
2023/01/18 04:59:05;;;;;;;16.83;2.80;;;12.10;76.50;;;;;;6275807;22;20007;-77
2023/01/18 05:01:32;;;;;;;15.82;2.35;;;12.10;76.60;;;;;;6275911;22;20000;-77
2023/01/18 05:03:57;;;;;;;9.38;2.00;;;12.10;76.50;;;;;;6275923;22;20368;-75
2023/01/18 05:06:24;;;;;;;12.07;2.45;;;12.20;76.60;;;;;;6275366;22;20015;-77
2023/01/18 05:08:50;;;;;;;13.27;1.98;;;12.20;76.30;;;;;;6275693;22;20003;-75
2023/01/18 05:11:17;;;;;;;15.25;2.35;;;12.20;76.30;;;;;;6275750;22;20072;-76
2023/01/18 05:13:43;;;;;;;14.38;2.40;;;12.20;76.10;;;;;;6275693;22;20094;-76
2023/01/18 05:16:18;;;;;;;13.95;2.42;;;12.30;76.00;;;;;;6275414;22;20050;-76
2023/01/18 05:18:44;;;;;;;12.30;3.83;;;12.30;76.00;;;;;;6275904;22;20003;-78
2023/01/18 05:21:10;;;;;;;13.85;1.95;;;12.30;75.90;;;;;;6275526;22;20022;-76
2023/01/18 05:23:36;;;;;;;12.25;2.15;;;12.30;75.90;;;;;;6276174;22;20000;-75
2023/01/18 05:26:03;;;;;;;12.25;3.17;;;12.30;75.80;;;;;;6276113;22;20441;-76
2023/01/18 05:28:29;;;;;;;11.98;2.25;;;12.30;75.80;;;;;;6275909;22;20307;-75
2023/01/18 05:30:54;;;;;;;11.85;2.10;;;12.30;75.80;;;;;;6275604;22;20006;-76
2023/01/18 05:33:21;;;;;;;17.52;2.78;;;12.30;75.90;;;;;;6275467;22;20385;-76
2023/01/18 05:35:49;;;;;;;13.45;2.20;;;12.30;76.10;;;;;;6275349;22;20039;-77
2023/01/18 05:38:14;;;;;;;18.00;2.55;;;12.30;76.30;;;;;;6289660;22;20019;-75
2023/01/18 05:40:43;;;;;;;12.90;1.95;;;12.30;76.40;;;;;;6306836;22;20077;-75
2023/01/18 05:43:09;;;;;;;11.52;1.80;;;12.30;76.60;;;;;;6306903;22;19999;-77
2023/01/18 05:45:34;;;;;;;13.15;2.30;;;12.30;76.90;;;;;;6307821;22;20324;-75
2023/01/18 05:48:00;;;;;;;14.23;2.38;;;12.30;77.00;;;;;;6331153;22;20000;-77
2023/01/18 05:50:26;;;;;;;11.93;2.70;;;12.30;77.00;;;;;;6335571;22;20005;-76
2023/01/18 05:52:51;;;;;;;9.27;2.03;;;12.30;77.00;;;;;;6321372;22;20004;-76
2023/01/18 05:55:18;;;;;;;10.88;1.98;;;12.30;76.90;;;;;;6308861;22;20003;-76
2023/01/18 05:57:43;;;;;;;10.13;2.30;;;12.30;76.80;;;;;;6308913;22;20439;-76
2023/01/18 06:00:10;;;;;;;13.65;1.83;;;12.30;77.00;;;;;;6308354;22;19995;-76
2023/01/18 06:02:35;;;;;;;9.73;1.88;;;12.20;76.60;;;;;;6308701;22;20006;-75
2023/01/18 06:05:01;;;;;;;13.52;2.75;;;12.30;76.40;;;;;;6308871;22;20000;-76
2023/01/18 06:07:27;;;;;;;11.15;2.00;;;12.30;76.30;;;;;;6308285;22;20019;-76
2023/01/18 06:09:52;;;;;;;16.17;2.00;;;12.30;76.10;;;;;;6308246;22;19995;-76
2023/01/18 06:12:18;;;;;;;9.07;1.90;;;12.20;76.00;;;;;;6307849;22;20447;-77
2023/01/18 06:14:44;;;;;;;10.65;1.60;;;12.20;75.80;;;;;;6308112;22;20395;-77
2023/01/18 06:17:09;;;;;;;13.23;1.95;;;12.20;75.90;;;;;;6307748;22;20007;-78
2023/01/18 06:19:35;;;;;;;13.48;2.22;;;12.30;75.60;;;;;;6307740;22;20035;-75
2023/01/18 06:22:01;;;;;;;13.38;1.80;;;12.30;75.60;;;;;;6307950;22;20026;-77
2023/01/18 06:24:27;;;;;;;13.48;2.13;;;12.30;75.60;;;;;;6307985;22;20041;-77
2023/01/18 06:26:52;;;;;;;8.88;2.13;;;12.30;76.10;;;;;;6308047;22;20006;-76
2023/01/18 06:29:18;;;;;;;12.80;3.38;;;12.30;75.80;;;;;;6307956;22;19996;-78
2023/01/18 06:31:44;;;;;;;12.27;2.65;;;12.30;75.80;;;;;;6307928;22;20003;-77
2023/01/18 06:34:10;;;;;;;8.43;1.80;;;12.30;75.90;;;;;;6307782;22;20006;-75
2023/01/18 06:36:36;;;;;;;10.48;1.80;;;12.30;76.10;;;;;;6308381;22;20026;-76
2023/01/18 06:39:02;;;;;;;10.95;1.70;;;12.20;75.90;;;;;;6308178;22;20011;-76
2023/01/18 06:41:28;;;;;;;16.13;2.35;;;12.20;76.10;;;;;;6308004;22;20077;-77
2023/01/18 06:43:54;;;;;;;12.80;1.88;;;12.20;76.00;;;;;;6307943;22;20054;-76
2023/01/18 06:46:20;;;;;;;8.18;1.77;;;12.20;75.90;;;;;;6307870;22;20000;-75
2023/01/18 06:48:46;;;;;;;13.13;2.58;;;12.30;75.80;;;;;;6280674;22;20042;-76
2023/01/18 06:51:12;;;;;;;7.55;1.73;;;12.30;75.60;;;;;;6308409;22;19999;-78
2023/01/18 06:53:38;;;;;;;12.30;2.20;;;12.40;75.70;;;;;;6307993;22;20419;-79
2023/01/18 06:56:09;;;;;;;9.57;2.10;;;12.40;75.70;;;;;;6307948;22;20018;-77
2023/01/18 06:58:35;;;;;;;12.55;2.08;;;12.40;75.70;;;;;;6308069;22;19999;-78
2023/01/18 07:01:01;;;;;;;7.25;2.00;;;12.40;75.60;;;;;;6307777;22;20049;-78
2023/01/18 07:03:29;;;;;;;13.07;2.53;;;12.40;75.40;;;;;;6307998;22;20006;-77
2023/01/18 07:06:00;;;;;;;13.15;2.10;;;12.40;75.50;;;;;;6307840;22;20448;-77
2023/01/18 07:08:27;;;;;;;12.95;2.08;;;12.40;75.50;;;;;;6307267;22;19999;-77
2023/01/18 07:10:53;;;;;;;11.75;2.38;;;12.40;75.40;;;;;;6307766;22;20433;-77
2023/01/18 07:13:19;;;;;;;7.65;2.03;;;12.50;75.20;;;;;;6280162;22;20091;-76
2023/01/18 07:15:55;;;;;;;11.52;2.15;;;12.50;75.20;;;;;;6307739;22;20015;-77
2023/01/18 07:18:22;;;;;;;12.20;1.98;;;12.50;75.00;;;;;;6307495;22;20023;-78
2023/01/18 07:20:56;;;;;;;13.82;2.42;;;12.60;75.00;;;;;;6279976;22;20010;-77
2023/01/18 07:23:22;;;;;;;10.70;1.98;;;12.60;74.80;;;;;;6307233;22;20507;-77
2023/01/18 07:25:47;;;;;;;12.98;2.03;;;12.70;74.80;;;;;;6308015;22;20129;-76
2023/01/18 07:28:13;;;;;;;10.82;2.10;;;12.70;74.90;;;;;;6307382;22;20086;-78
2023/01/18 07:30:39;;;;;;;13.40;2.22;;;12.70;74.90;;;;;;6307536;22;19999;-78
2023/01/18 07:33:05;;;;;;;11.20;2.05;;;12.70;74.70;;;;;;6307593;22;20010;-77
2023/01/18 07:35:31;;;;;;;12.63;2.90;;;12.70;74.80;;;;;;6306982;22;20124;-77
2023/01/18 07:37:57;;;;;;;9.40;2.28;;;12.70;74.80;;;;;;6280038;22;20025;-78
2023/01/18 07:40:22;;;;;;;14.98;2.33;;;12.80;74.80;;;;;;6307145;22;20034;-78
2023/01/18 07:42:55;;;;;;;13.95;2.33;;;12.80;74.80;;;;;;6307056;22;20274;-76
2023/01/18 07:45:20;;;;;;;17.80;3.58;;;12.80;74.60;;;;;;6307064;22;20007;-77
2023/01/18 07:47:46;;;;;;;17.75;2.92;;;12.90;74.70;;;;;;6306689;22;20000;-76
2023/01/18 07:50:13;;;;;;;10.75;3.00;;;12.90;74.50;;;;;;6306723;22;20003;-77
2023/01/18 07:52:38;;;;;;;17.15;5.45;;;13.00;74.70;;;;;;6306719;22;20006;-78
2023/01/18 07:55:05;;;;;;;16.42;4.88;;;13.00;74.50;;;;;;6306629;22;20007;-77
2023/01/18 07:57:30;;;;;;;16.33;3.80;;;13.00;74.30;;;;;;6278861;22;20138;-76
2023/01/18 07:59:56;;;;;;;8.73;2.50;;;13.10;74.20;;;;;;6306362;22;20100;-77
2023/01/18 08:02:21;;;;;;;12.75;3.50;;;13.10;74.10;;;;;;6306457;22;19999;-76
2023/01/18 08:04:51;;;;;;;25.17;4.13;;;13.00;74.10;;;;;;6307082;22;20010;-78
2023/01/18 08:07:17;;;;;;;13.30;3.10;;;13.00;74.50;;;;;;6306824;22;20092;-78
2023/01/18 08:09:43;;;;;;;8.32;2.50;;;13.00;74.50;;;;;;6306496;22;20006;-76
2023/01/18 08:12:12;;;;;;;15.20;4.05;;;13.00;74.70;;;;;;6306575;22;20488;-77
2023/01/18 08:14:39;;;;;;;14.63;2.80;;;13.00;75.00;;;;;;6306908;22;20003;-77
2023/01/18 08:17:05;;;;;;;13.48;3.30;;;13.00;75.10;;;;;;6306556;22;20015;-77
2023/01/18 08:19:31;;;;;;;16.70;3.25;;;13.00;75.20;;;;;;6306867;22;20003;-77
2023/01/18 08:21:57;;;;;;;12.50;3.03;;;13.00;75.40;;;;;;6306819;22;20057;-77
2023/01/18 08:24:22;;;;;;;16.55;3.00;;;13.00;75.70;;;;;;6306769;22;19995;-77
2023/01/18 08:26:48;;;;;;;8.68;2.00;;;13.00;75.90;;;;;;6307151;22;20417;-76
2023/01/18 08:29:14;;;;;;;9.85;1.92;;;13.00;75.80;;;;;;6307308;22;20004;-77
2023/01/18 08:31:39;;;;;;;12.23;1.90;;;13.10;75.90;;;;;;6306960;22;19999;-78
2023/01/18 08:34:05;;;;;;;9.00;2.13;;;13.10;75.80;;;;;;6306627;22;20022;-78
2023/01/18 08:36:31;;;;;;;10.57;1.95;;;13.10;75.80;;;;;;6306490;22;20136;-76
2023/01/18 08:38:57;;;;;;;11.93;2.92;;;13.20;76.30;;;;;;6306526;22;20090;-77
2023/01/18 08:41:27;;;;;;;10.52;2.10;;;13.20;75.80;;;;;;6306286;22;20325;-77
2023/01/18 08:43:54;;;;;;;14.35;2.70;;;13.20;75.90;;;;;;6306684;22;19999;-76
2023/01/18 08:46:20;;;;;;;12.70;2.90;;;13.30;76.10;;;;;;6306254;22;19999;-77
2023/01/18 08:48:54;;;;;;;14.15;3.00;;;13.30;76.30;;;;;;6304734;22;20333;-76
2023/01/18 08:51:21;;;;;;;11.85;2.40;;;13.30;76.60;;;;;;6306403;22;20333;-77
2023/01/18 08:53:50;;;;;;;9.40;2.00;;;13.30;76.80;;;;;;6306144;22;20006;-76
2023/01/18 08:56:17;;;;;;;14.25;2.50;;;13.30;77.20;;;;;;6306263;22;20012;-76
2023/01/18 08:58:43;;;;;;;14.27;2.78;;;13.30;77.50;;;;;;6306498;22;20401;-77
2023/01/18 09:01:09;;;;;;;11.00;2.90;;;13.30;77.80;;;;;;6308635;22;20070;-75
2023/01/18 09:03:36;;;;;;;15.30;3.03;;;13.30;77.90;;;;;;6307603;22;20421;-77
2023/01/18 09:06:04;;;;;;;11.65;2.88;;;13.40;78.10;;;;;;6324134;22;20006;-76
2023/01/18 09:08:30;;;;;;;9.90;2.72;;;13.40;78.30;;;;;;6333485;22;20044;-77
2023/01/18 09:11:01;;;;;;;13.18;2.90;;;13.50;78.50;;;;;;6324252;22;20056;-77
2023/01/18 09:13:27;;;;;;;12.45;2.78;;;13.40;78.50;;;;;;6307046;22;20377;-77
2023/01/18 09:16:10;;;;;;;16.73;3.20;;;13.50;78.90;;;;;;6306344;22;20090;-76
2023/01/18 09:18:37;;;;;;;21.10;3.50;;;13.40;78.90;;;;;;6307438;22;20015;-77
2023/01/18 09:21:08;;;;;;;16.27;3.78;;;13.40;79.30;;;;;;6307484;22;20003;-76
2023/01/18 09:23:35;;;;;;;13.02;2.55;;;13.30;79.30;;;;;;6308595;22;19996;-78
2023/01/18 09:26:08;;;;;;;11.32;2.30;;;13.20;79.00;;;;;;6309050;22;20004;-76
2023/01/18 09:28:35;;;;;;;14.38;1.85;;;13.20;78.80;;;;;;6313835;22;19999;-79
2023/01/18 09:31:03;;;;;;;8.75;1.98;;;13.20;78.60;;;;;;6324456;22;20057;-76
2023/01/18 09:33:29;;;;;;;9.75;2.08;;;13.20;78.80;;;;;;6307667;22;20406;-77
2023/01/18 09:35:56;;;;;;;14.20;2.78;;;13.20;79.20;;;;;;6308581;22;20015;-77
2023/01/18 09:38:22;;;;;;;12.68;2.33;;;13.10;79.70;;;;;;6308569;22;20023;-78
2023/01/18 09:40:52;;;;;;;12.35;2.10;;;13.10;79.40;;;;;;6308245;22;20006;-76
2023/01/18 09:43:27;;;;;;;14.75;2.33;;;13.10;79.20;;;;;;6308144;22;19999;-77
2023/01/18 09:45:54;;;;;;;13.63;2.63;;;13.20;79.80;;;;;;6308688;22;20066;-77
2023/01/18 09:48:39;;;;;;;7.53;1.73;;;13.20;78.90;;;;;;6308398;22;20078;-77
2023/01/18 09:51:34;;;;;;;11.00;1.63;;;13.10;79.30;;;;;;6308329;22;20003;-78
2023/01/18 09:54:06;;;;;;;7.13;1.98;;;13.10;79.30;;;;;;6291460;22;20056;-77
2023/01/18 09:57:07;;;;;;;10.23;1.83;;;13.20;78.70;;;;;;6308158;22;20011;-77
2023/01/18 09:59:47;;;;;;;8.32;1.45;;;13.30;78.40;;;;;;6308100;22;19995;-78
2023/01/18 10:02:22;;;;;;;8.52;1.73;;;13.40;78.20;;;;;;6308054;22;20425;-78
2023/01/18 10:04:54;;;;;;;14.10;2.80;;;13.40;77.80;;;;;;6308115;22;20003;-77
2023/01/18 10:07:23;;;;;;;10.52;2.60;;;13.50;77.70;;;;;;6307784;22;20000;-77
2023/01/18 10:09:55;;;;;;;18.23;2.53;;;13.60;77.80;;;;;;6307898;22;20003;-79
2023/01/18 10:12:36;;;;;;;11.30;2.17;;;13.70;77.90;;;;;;6307548;22;20000;-78
2023/01/18 10:15:26;;;;;;;9.73;3.42;;;13.80;78.10;;;;;;6308069;22;20043;-77
2023/01/18 10:17:55;;;;;;;8.90;2.33;;;13.80;77.90;;;;;;6307248;22;20018;-77
2023/01/18 10:20:56;;;;;;;10.25;2.17;;;13.80;78.10;;;;;;6307673;22;20013;-77
2023/01/18 10:23:27;;;;;;;8.73;2.67;;;13.80;78.70;;;;;;6307860;22;20491;-76
2023/01/18 10:25:57;;;;;;;14.00;2.55;;;13.80;78.50;;;;;;6307908;22;20334;-79
2023/01/18 10:28:58;;;;;;;8.70;2.13;;;13.80;78.40;;;;;;6307630;22;20432;-77
2023/01/18 10:31:45;;;;;;;10.75;2.80;;;13.80;78.40;;;;;;6306691;22;20007;-78
2023/01/18 10:34:23;;;;;;;13.10;3.08;;;13.80;78.90;;;;;;6307973;22;19995;-77
2023/01/18 10:36:52;;;;;;;13.30;3.20;;;13.80;78.60;;;;;;6307525;22;20019;-78
2023/01/18 10:39:34;;;;;;;14.73;2.50;;;13.80;78.50;;;;;;6307205;22;20372;-77
2023/01/18 10:42:03;;;;;;;14.23;3.05;;;13.90;78.70;;;;;;6307610;22;20041;-79
2023/01/18 10:44:30;;;;;;;13.65;2.20;;;13.90;78.30;;;;;;6307390;22;20003;-77
2023/01/18 10:46:58;;;;;;;9.48;2.10;;;14.00;78.40;;;;;;6307533;22;20475;-76
2023/01/18 10:49:44;;;;;;;10.52;1.80;;;14.10;78.50;;;;;;6307876;22;20448;-78
2023/01/18 10:52:24;;;;;;;12.07;2.67;;;14.20;78.00;;;;;;6307811;22;20007;-78
2023/01/18 10:55:02;;;;;;;13.30;1.90;;;14.30;77.80;;;;;;6307948;22;20500;-77
2023/01/18 10:57:46;;;;;;;7.43;1.92;;;14.30;77.40;;;;;;6307357;22;20397;-77
2023/01/18 11:00:29;;;;;;;15.52;2.40;;;14.30;76.90;;;;;;6280160;22;20038;-76
2023/01/18 11:02:57;;;;;;;11.32;2.45;;;14.20;76.80;;;;;;6307631;22;20400;-78
2023/01/18 11:05:32;;;;;;;15.75;3.08;;;14.10;76.80;;;;;;6305981;22;20059;-77
2023/01/18 11:08:17;;;;;;;14.80;3.10;;;14.00;77.50;;;;;;6307368;22;20271;-78
2023/01/18 11:10:42;;;;;;;10.88;3.05;;;13.90;77.80;;;;;;6307376;22;19995;-77
2023/01/18 11:13:42;;;;;;;17.25;3.28;;;13.80;78.20;;;;;;6311670;22;20053;-78
2023/01/18 11:16:09;;;;;;;12.23;2.38;;;13.70;78.40;;;;;;6307466;22;20014;-79
2023/01/18 11:18:35;;;;;;;17.80;3.03;;;13.70;78.50;;;;;;6307028;22;20032;-78
2023/01/18 11:21:01;;;;;;;12.65;3.30;;;13.60;78.50;;;;;;6306981;22;20366;-76
2023/01/18 11:23:36;;;;;;;13.13;2.67;;;13.60;78.90;;;;;;6307169;22;20000;-78
2023/01/18 11:26:06;;;;;;;8.90;2.30;;;13.60;78.60;;;;;;6307460;22;20011;-77
2023/01/18 11:29:04;;;;;;;8.60;2.08;;;13.60;78.40;;;;;;6307130;22;20057;-78
2023/01/18 11:31:44;;;;;;;11.20;2.38;;;13.50;78.00;;;;;;6280785;22;20023;-76
2023/01/18 11:34:21;;;;;;;10.63;1.95;;;13.50;77.90;;;;;;6307087;22;20302;-78
2023/01/18 11:36:47;;;;;;;7.60;1.90;;;13.50;77.70;;;;;;6306862;22;20014;-76
2023/01/18 11:39:26;;;;;;;9.85;1.83;;;13.60;77.40;;;;;;6306767;22;20011;-78
2023/01/18 11:42:09;;;;;;;6.13;1.80;;;13.70;77.10;;;;;;6306883;22;20007;-78
2023/01/18 11:44:38;;;;;;;9.27;1.87;;;13.90;77.00;;;;;;6306563;22;20437;-77
2023/01/18 11:47:09;;;;;;;6.32;1.67;;;14.00;76.50;;;;;;6306503;22;19999;-77
2023/01/18 11:49:48;;;;;;;4.97;1.70;;;14.10;76.10;;;;;;6306777;22;20000;-77
2023/01/18 11:52:54;;;;;;;3.78;1.50;;;14.10;75.60;;;;;;6306783;22;20026;-77
2023/01/18 11:55:35;;;;;;;5.80;1.30;;;14.10;75.40;;;;;;6238916;22;20018;-78
2023/01/18 11:58:04;;;;;;;5.45;1.40;;;14.20;75.20;;;;;;6306994;22;20009;-77
2023/01/18 12:00:45;;;;;;;4.30;1.70;;;14.20;74.80;;;;;;6306861;22;20005;-79
2023/01/18 12:03:44;;;;;;;5.90;1.30;;;14.30;74.70;;;;;;6307046;22;20018;-77
2023/01/18 12:06:16;;;;;;;2.78;1.20;;;14.30;74.30;;;;;;6306735;22;19999;-78
2023/01/18 12:09:07;;;;;;;3.88;1.15;;;14.30;74.20;;;;;;6306726;22;20003;-77
2023/01/18 12:11:36;;;;;;;6.00;1.42;;;14.30;73.50;;;;;;6290797;22;20031;-77
2023/01/18 12:14:11;;;;;;;4.43;1.67;;;14.30;73.90;;;;;;6306380;22;20003;-77
2023/01/18 12:17:01;;;;;;;5.53;1.40;;;14.30;73.70;;;;;;6307017;22;20011;-78
2023/01/18 12:20:07;;;;;;;3.85;1.33;;;14.30;73.80;;;;;;6279463;22;20447;-78
2023/01/18 12:22:36;;;;;;;5.10;1.50;;;14.20;73.50;;;;;;6311143;22;19999;-76
2023/01/18 12:25:19;;;;;;;7.22;1.40;;;14.20;73.70;;;;;;6309400;22;20030;-77
2023/01/18 12:28:08;;;;;;;5.13;1.23;;;14.20;73.80;;;;;;6314540;22;20003;-78
2023/01/18 12:30:45;;;;;;;3.83;1.13;;;14.10;73.30;;;;;;6305656;22;20078;-77
2023/01/18 12:33:25;;;;;;;3.28;1.10;;;14.00;73.10;;;;;;6322400;22;20026;-77
2023/01/18 12:36:12;;;;;;;5.70;1.70;;;14.00;73.80;;;;;;6321060;22;20079;-78
2023/01/18 12:38:48;;;;;;;3.45;1.67;;;14.00;73.90;;;;;;6314232;22;20090;-77
2023/01/18 12:41:23;;;;;;;5.93;1.33;;;13.90;74.00;;;;;;6307668;22;20074;-78
2023/01/18 12:44:24;;;;;;;6.30;1.60;;;13.90;73.80;;;;;;6281610;22;20007;-78
2023/01/18 12:47:20;;;;;;;7.95;1.90;;;13.90;73.80;;;;;;6306903;22;20082;-78
2023/01/18 12:49:49;;;;;;;8.38;1.40;;;14.00;73.60;;;;;;6306774;22;20011;-77
2023/01/18 12:52:17;;;;;;;6.28;1.55;;;14.00;73.50;;;;;;6306338;22;20421;-77
2023/01/18 12:54:50;;;;;;;9.38;1.70;;;14.00;73.60;;;;;;6306716;22;20019;-77
2023/01/18 12:57:18;;;;;;;6.95;1.70;;;13.90;73.60;;;;;;6306684;22;20012;-77
2023/01/18 12:59:53;;;;;;;8.98;1.52;;;13.90;73.80;;;;;;6306560;22;19996;-78
2023/01/18 13:02:36;;;;;;;6.60;1.30;;;13.80;73.30;;;;;;6306098;22;19995;-78
2023/01/18 13:05:31;;;;;;;6.30;1.58;;;13.80;73.60;;;;;;6306542;22;20000;-79
2023/01/18 13:08:03;;;;;;;4.65;1.20;;;13.80;73.50;;;;;;6306803;22;20000;-76
2023/01/18 13:10:29;;;;;;;3.92;1.30;;;13.80;73.80;;;;;;6306904;22;20011;-77
2023/01/18 13:12:57;;;;;;;4.00;1.40;;;13.70;73.60;;;;;;6306178;22;20090;-78
2023/01/18 13:15:36;;;;;;;6.35;1.60;;;13.70;73.70;;;;;;6306334;22;19995;-78
2023/01/18 13:18:24;;;;;;;4.60;1.70;;;13.70;73.50;;;;;;6306756;22;20074;-77
2023/01/18 13:21:23;;;;;;;7.05;1.83;;;13.70;73.80;;;;;;6306493;22;20049;-78
2023/01/18 13:23:55;;;;;;;9.40;2.03;;;13.70;73.80;;;;;;6306494;22;20003;-78
2023/01/18 13:26:28;;;;;;;8.57;2.00;;;13.60;74.10;;;;;;6306234;22;19999;-78
2023/01/18 13:29:09;;;;;;;7.82;2.30;;;13.60;74.50;;;;;;6306619;22;20003;-78
2023/01/18 13:31:36;;;;;;;7.00;2.30;;;13.50;75.10;;;;;;6306551;22;20030;-77
2023/01/18 13:34:02;;;;;;;10.75;2.55;;;13.50;75.60;;;;;;6306686;22;20058;-75